Time;durP1;ratioP1;P1;durP2;ratioP2;P2;SDS_P1;SDS_P2;PMS_P1;PMS_P2;Temp;Humidity;BMP_temperature;BMP_pressure;BME280_temperature;BME280_humidity;BME280_pressure;Samples;Min_cycle;Max_cycle;Signal;HPM_P1;HPM_P2
2023/04/16 00:00:27;;;;;;;12.10;6.03;;;9.80;1.00;;;;;;4974234;28;20659;-87
2023/04/16 00:02:52;;;;;;;13.63;7.37;;;9.80;1.00;;;;;;4966458;28;20211;-87
2023/04/16 00:05:18;;;;;;;13.13;6.40;;;9.80;1.00;;;;;;4974109;28;20915;-86
2023/04/16 00:07:43;;;;;;;17.00;6.87;;;9.80;1.00;;;;;;4973659;28;20851;-86
2023/04/16 00:10:09;;;;;;;14.57;6.70;;;9.80;1.00;;;;;;4974128;28;20239;-87
2023/04/16 00:12:35;;;;;;;11.60;6.03;;;9.80;1.00;;;;;;4973455;28;20204;-86
2023/04/16 00:15:00;;;;;;;9.70;6.13;;;9.80;1.00;;;;;;4974880;28;20242;-87
2023/04/16 00:17:26;;;;;;;19.70;7.00;;;9.80;1.00;;;;;;4973812;28;20431;-86
2023/04/16 00:19:52;;;;;;;13.77;7.00;;;9.80;1.00;;;;;;4969168;28;20195;-86
2023/04/16 00:22:17;;;;;;;11.90;6.93;;;9.70;1.00;;;;;;4971626;28;20204;-86
2023/04/16 00:24:42;;;;;;;9.37;6.70;;;9.70;1.00;;;;;;4963833;28;20192;-87
2023/04/16 00:27:08;;;;;;;16.67;6.97;;;9.70;1.00;;;;;;4972229;28;20192;-87
2023/04/16 00:29:34;;;;;;;13.17;6.90;;;9.70;15.20;;;;;;4972688;28;20647;-86
2023/04/16 00:31:59;;;;;;;12.33;6.23;;;9.70;53.00;;;;;;4970722;28;20711;-85
2023/04/16 00:34:25;;;;;;;15.30;7.97;;;9.70;57.60;;;;;;4970281;28;20204;-86
2023/04/16 00:36:51;;;;;;;16.57;7.10;;;9.70;95.10;;;;;;4970303;28;20212;-86
2023/04/16 00:39:16;;;;;;;14.83;6.70;;;9.70;88.20;;;;;;4969759;28;20187;-86
2023/04/16 00:41:42;;;;;;;16.20;6.27;;;9.60;99.90;;;;;;4971215;28;20193;-86
2023/04/16 00:44:08;;;;;;;13.57;7.20;;;9.60;99.90;;;;;;4971697;28;20187;-86
2023/04/16 00:46:35;;;;;;;11.33;7.87;;;9.60;99.90;;;;;;4973098;28;20435;-86
2023/04/16 00:49:01;;;;;;;13.27;6.67;;;9.60;94.70;;;;;;4972978;28;20208;-86
2023/04/16 00:51:27;;;;;;;13.33;8.13;;;9.60;99.90;;;;;;4970695;28;20500;-85
2023/04/16 00:53:53;;;;;;;11.70;7.10;;;9.60;99.90;;;;;;4968303;28;20951;-86
2023/04/16 00:56:21;;;;;;;10.60;8.10;;;9.50;99.90;;;;;;4977929;28;20200;-86
2023/04/16 00:58:46;;;;;;;14.67;7.17;;;9.50;99.90;;;;;;4969467;28;20216;-86
2023/04/16 01:01:13;;;;;;;13.30;7.37;;;9.50;99.90;;;;;;4970824;28;20431;-86
2023/04/16 01:03:46;;;;;;;23.83;8.00;;;9.50;99.90;;;;;;4970814;28;20246;-86
2023/04/16 01:06:12;;;;;;;13.77;7.77;;;9.50;99.90;;;;;;4971484;28;20434;-85
2023/04/16 01:08:38;;;;;;;12.85;7.47;;;9.60;99.90;;;;;;4972148;28;20918;-86
2023/04/16 01:11:04;;;;;;;13.40;7.70;;;9.60;99.90;;;;;;4974365;28;20271;-86
2023/04/16 01:13:30;;;;;;;10.93;7.77;;;9.50;99.90;;;;;;4970387;28;20467;-86
2023/04/16 01:15:56;;;;;;;17.00;8.40;;;9.60;99.90;;;;;;4970435;28;20283;-85
2023/04/16 01:18:22;;;;;;;17.53;7.87;;;9.50;99.90;;;;;;4972447;28;20459;-86
2023/04/16 01:20:49;;;;;;;12.70;7.80;;;9.50;99.90;;;;;;4970126;28;21029;-86
2023/04/16 01:23:15;;;;;;;18.57;8.97;;;9.50;99.90;;;;;;4971080;28;20473;-86
2023/04/16 01:25:40;;;;;;;14.80;8.33;;;9.50;99.90;;;;;;4971766;28;20534;-86
2023/04/16 01:28:06;;;;;;;12.00;8.27;;;9.50;99.90;;;;;;4966996;28;20440;-86
2023/04/16 01:30:32;;;;;;;13.67;8.10;;;9.50;99.90;;;;;;4970083;28;20224;-86
2023/04/16 01:32:57;;;;;;;13.53;7.63;;;9.50;99.90;;;;;;4967905;28;21017;-86
2023/04/16 01:35:24;;;;;;;13.33;8.27;;;9.60;99.90;;;;;;4969779;28;20184;-86
2023/04/16 01:37:50;;;;;;;20.17;9.63;;;9.60;99.90;;;;;;4969503;28;20200;-85
2023/04/16 01:40:16;;;;;;;23.40;8.77;;;9.60;99.90;;;;;;4970550;28;20535;-86
2023/04/16 01:42:41;;;;;;;17.70;9.50;;;9.50;99.90;;;;;;4964867;28;20566;-86
2023/04/16 01:45:07;;;;;;;13.13;8.00;;;9.50;99.90;;;;;;4970664;28;20782;-86
2023/04/16 01:47:33;;;;;;;15.13;9.67;;;9.50;99.90;;;;;;4969135;28;20718;-85
2023/04/16 01:49:59;;;;;;;12.70;8.60;;;9.50;99.90;;;;;;4971450;28;20473;-86
2023/04/16 01:52:25;;;;;;;13.37;8.90;;;9.50;99.90;;;;;;4971541;28;20818;-86
2023/04/16 01:54:50;;;;;;;12.07;8.23;;;9.50;99.90;;;;;;4970753;28;20434;-86
2023/04/16 01:57:16;;;;;;;13.40;10.20;;;9.50;99.90;;;;;;4972060;28;20555;-85
2023/04/16 01:59:42;;;;;;;12.73;9.80;;;9.60;99.90;;;;;;4964469;28;20203;-86
2023/04/16 02:02:09;;;;;;;17.30;9.77;;;9.60;99.90;;;;;;4964590;28;20208;-86
2023/04/16 02:04:37;;;;;;;14.30;8.90;;;9.60;99.90;;;;;;4971469;28;20198;-85
2023/04/16 02:07:04;;;;;;;21.20;10.80;;;9.60;99.90;;;;;;4970890;28;21098;-85
2023/04/16 02:09:29;;;;;;;13.50;8.73;;;9.70;99.90;;;;;;4970195;28;20451;-86
2023/04/16 02:11:55;;;;;;;19.67;10.40;;;9.60;99.90;;;;;;4969964;28;20478;-86
2023/04/16 02:14:24;;;;;;;13.53;9.20;;;9.70;99.90;;;;;;4970352;28;20838;-86
2023/04/16 02:16:50;;;;;;;12.53;9.47;;;9.60;99.90;;;;;;4971170;28;20620;-85
2023/04/16 02:19:16;;;;;;;19.50;10.20;;;9.60;99.90;;;;;;4967315;28;20521;-86
2023/04/16 02:21:42;;;;;;;15.50;9.97;;;9.50;99.90;;;;;;4971191;28;21005;-86
2023/04/16 02:24:07;;;;;;;18.40;9.77;;;9.60;99.90;;;;;;4965055;28;20449;-86
2023/04/16 02:26:33;;;;;;;14.77;9.73;;;9.60;99.90;;;;;;4970991;28;20227;-85
2023/04/16 02:28:58;;;;;;;16.20;10.77;;;9.60;99.90;;;;;;4969526;28;20594;-86
2023/04/16 02:31:24;;;;;;;19.77;11.10;;;9.60;99.90;;;;;;4970310;28;20431;-86
2023/04/16 02:33:49;;;;;;;20.43;11.00;;;9.60;99.90;;;;;;4967925;28;20235;-84
2023/04/16 02:36:15;;;;;;;19.00;10.63;;;9.60;99.90;;;;;;4969379;28;20195;-85
2023/04/16 02:38:40;;;;;;;21.30;11.23;;;9.60;99.90;;;;;;4969158;28;20279;-86
2023/04/16 02:41:06;;;;;;;21.37;10.00;;;9.60;99.90;;;;;;4978357;28;20180;-86
2023/04/16 02:43:31;;;;;;;18.77;12.03;;;9.60;99.90;;;;;;4970083;28;20287;-86
2023/04/16 02:45:58;;;;;;;14.70;10.00;;;9.60;99.90;;;;;;4969657;28;20556;-86
2023/04/16 02:48:23;;;;;;;21.10;11.53;;;9.70;99.90;;;;;;4970806;28;20547;-85
2023/04/16 02:50:49;;;;;;;23.50;11.43;;;9.60;99.90;;;;;;4965008;28;20467;-85
2023/04/16 02:53:15;;;;;;;21.07;11.97;;;9.70;99.90;;;;;;4970348;28;20247;-85
2023/04/16 02:55:41;;;;;;;16.30;10.80;;;9.70;99.90;;;;;;4970404;28;20449;-87
2023/04/16 02:58:06;;;;;;;19.90;11.70;;;9.60;99.90;;;;;;4970187;28;20644;-85
2023/04/16 03:00:32;;;;;;;23.90;11.93;;;9.70;1.00;;;;;;4969270;28;20228;-85
2023/04/16 03:02:57;;;;;;;23.77;11.80;;;9.70;1.00;;;;;;4983541;28;20262;-85
2023/04/16 03:05:23;;;;;;;26.03;12.60;;;9.60;1.00;;;;;;4990545;28;20192;-85
2023/04/16 03:07:49;;;;;;;19.30;11.00;;;9.60;1.00;;;;;;4978730;28;20188;-87
2023/04/16 03:10:15;;;;;;;20.63;12.20;;;9.60;1.00;;;;;;4969579;28;20262;-87
2023/04/16 03:12:41;;;;;;;25.70;13.80;;;9.70;1.00;;;;;;4969318;28;20459;-86
2023/04/16 03:15:07;;;;;;;32.57;13.07;;;9.60;1.00;;;;;;4970288;28;20896;-86
2023/04/16 03:17:32;;;;;;;23.63;12.83;;;9.60;1.00;;;;;;4968577;28;20569;-86
2023/04/16 03:19:58;;;;;;;24.93;13.23;;;9.60;1.00;;;;;;4970320;28;20467;-86
2023/04/16 03:22:24;;;;;;;22.53;12.40;;;9.60;1.00;;;;;;4971435;28;20203;-87
2023/04/16 03:24:49;;;;;;;27.03;13.50;;;9.50;1.00;;;;;;4970036;28;20193;-86
2023/04/16 03:27:15;;;;;;;22.20;12.50;;;9.50;1.00;;;;;;4972508;28;23061;-86
2023/04/16 03:29:41;;;;;;;28.07;13.70;;;9.50;1.00;;;;;;4971247;28;20220;-86
2023/04/16 03:32:06;;;;;;;24.40;14.30;;;9.50;1.00;;;;;;4971589;28;20224;-85
2023/04/16 03:34:32;;;;;;;22.60;13.83;;;9.50;1.00;;;;;;4973929;28;20199;-86
2023/04/16 03:36:57;;;;;;;25.30;15.20;;;9.50;1.00;;;;;;4971873;28;20656;-86
2023/04/16 03:39:23;;;;;;;31.83;14.83;;;9.50;1.00;;;;;;4973575;28;20192;-87
2023/04/16 03:41:48;;;;;;;33.17;15.57;;;9.40;1.00;;;;;;4967790;28;20283;-86
2023/04/16 03:44:14;;;;;;;25.50;15.10;;;9.40;1.00;;;;;;4973177;28;20192;-86
2023/04/16 03:46:40;;;;;;;40.10;17.10;;;9.50;1.00;;;;;;4966887;28;20188;-86
2023/04/16 03:49:05;;;;;;;26.53;15.17;;;9.40;1.00;;;;;;4972239;28;20180;-87
2023/04/16 03:51:31;;;;;;;31.57;16.90;;;9.40;1.00;;;;;;4973968;28;20215;-86
2023/04/16 03:53:56;;;;;;;36.70;18.17;;;9.40;1.00;;;;;;4973815;28;20200;-86
2023/04/16 03:56:22;;;;;;;30.70;15.90;;;9.40;1.00;;;;;;4973562;28;20188;-87
2023/04/16 03:58:47;;;;;;;29.53;16.93;;;9.40;1.00;;;;;;4962343;28;20192;-86
2023/04/16 04:01:13;;;;;;;34.83;16.67;;;9.40;1.00;;;;;;4972228;28;20287;-86
2023/04/16 04:03:38;;;;;;;27.40;17.77;;;9.40;1.00;;;;;;4972768;28;20933;-86
2023/04/16 04:06:08;;;;;;;41.87;19.83;;;9.40;1.00;;;;;;4972604;28;20259;-86
2023/04/16 04:08:33;;;;;;;39.57;19.47;;;9.30;1.00;;;;;;4973865;28;20195;-85
2023/04/16 04:10:59;;;;;;;34.33;18.63;;;9.30;1.00;;;;;;4973511;28;20851;-86
2023/04/16 04:13:25;;;;;;;42.73;20.80;;;9.30;1.00;;;;;;4979881;28;20220;-87
2023/04/16 04:15:50;;;;;;;39.63;19.70;;;9.30;1.00;;;;;;4968237;28;20264;-87
2023/04/16 04:18:16;;;;;;;39.20;18.53;;;9.30;1.00;;;;;;4972723;28;20196;-85
2023/04/16 04:20:43;;;;;;;42.20;19.30;;;9.30;1.00;;;;;;4972051;28;20184;-86
2023/04/16 04:23:08;;;;;;;38.27;21.03;;;9.30;1.00;;;;;;4970548;28;20215;-87
2023/04/16 04:25:34;;;;;;;37.27;18.27;;;9.30;1.00;;;;;;4972742;28;20428;-87
2023/04/16 04:28:00;;;;;;;37.03;19.50;;;9.40;1.00;;;;;;4970551;28;20196;-87
2023/04/16 04:30:25;;;;;;;40.77;20.53;;;9.40;1.00;;;;;;4972103;28;20464;-86
2023/04/16 04:32:51;;;;;;;41.63;21.27;;;9.40;1.00;;;;;;4966111;28;20216;-86
2023/04/16 04:35:16;;;;;;;37.87;19.67;;;9.40;1.00;;;;;;4967303;28;20568;-86
2023/04/16 04:37:42;;;;;;;40.70;19.97;;;9.40;1.00;;;;;;4970947;28;20197;-87
2023/04/16 04:40:08;;;;;;;43.77;21.70;;;9.50;1.00;;;;;;4971078;28;20207;-86
2023/04/16 04:42:34;;;;;;;36.83;20.20;;;9.50;1.00;;;;;;4971894;28;20211;-86
2023/04/16 04:44:59;;;;;;;39.90;21.57;;;9.50;1.00;;;;;;4971744;28;20468;-86
2023/04/16 04:47:25;;;;;;;38.47;19.90;;;9.50;1.00;;;;;;4970140;28;20819;-87
2023/04/16 04:49:50;;;;;;;35.30;19.27;;;9.50;1.00;;;;;;4973158;28;20315;-87
2023/04/16 04:52:16;;;;;;;37.00;19.80;;;9.60;1.00;;;;;;4968381;28;20310;-87
2023/04/16 04:54:41;;;;;;;40.60;19.67;;;9.60;1.00;;;;;;4973027;28;20671;-86
2023/04/16 04:57:07;;;;;;;39.33;19.00;;;9.60;1.00;;;;;;4969926;28;20568;-86
2023/04/16 04:59:33;;;;;;;37.00;19.47;;;9.60;1.00;;;;;;4971425;28;20180;-86
2023/04/16 05:01:59;;;;;;;37.83;19.47;;;9.60;1.00;;;;;;4971672;28;20460;-86
2023/04/16 05:04:24;;;;;;;44.13;19.73;;;9.60;1.00;;;;;;4970821;28;20234;-87
2023/04/16 05:06:50;;;;;;;30.13;18.70;;;9.60;1.00;;;;;;4970182;28;20216;-86
2023/04/16 05:09:16;;;;;;;35.17;19.63;;;9.70;1.00;;;;;;4965624;28;20251;-86
2023/04/16 05:11:41;;;;;;;45.57;19.97;;;9.70;1.00;;;;;;4970578;28;20711;-87
2023/04/16 05:14:07;;;;;;;44.37;18.43;;;9.70;1.00;;;;;;4970348;28;20442;-85
2023/04/16 05:16:36;;;;;;;38.70;19.50;;;9.70;1.00;;;;;;4970925;28;20180;-86
2023/04/16 05:19:02;;;;;;;39.90;17.93;;;9.70;1.00;;;;;;4970861;28;20482;-86
2023/04/16 05:21:27;;;;;;;34.40;19.67;;;9.70;1.00;;;;;;4972215;28;20451;-86
2023/04/16 05:23:53;;;;;;;34.97;17.97;;;9.70;1.00;;;;;;4971733;28;20263;-86
2023/04/16 05:26:18;;;;;;;29.73;19.00;;;9.70;1.00;;;;;;4967332;28;20270;-86
2023/04/16 05:28:44;;;;;;;33.30;19.13;;;9.70;1.00;;;;;;4972372;28;20384;-86
2023/04/16 05:31:10;;;;;;;32.60;17.60;;;9.70;1.00;;;;;;4969396;28;20217;-86
2023/04/16 05:33:35;;;;;;;37.90;18.80;;;9.70;1.00;;;;;;4970826;28;20207;-86
2023/04/16 05:36:01;;;;;;;48.73;22.60;;;9.80;1.00;;;;;;4970127;28;20196;-86
2023/04/16 05:38:26;;;;;;;46.97;21.90;;;9.80;1.00;;;;;;4970883;28;20606;-86
2023/04/16 05:40:52;;;;;;;50.97;22.33;;;9.90;1.00;;;;;;4983443;28;20215;-86
2023/04/16 05:43:17;;;;;;;59.37;27.80;;;9.90;1.00;;;;;;4971126;28;20212;-86
2023/04/16 05:45:43;;;;;;;116.77;41.00;;;9.90;1.00;;;;;;4972494;28;20536;-86
2023/04/16 05:48:09;;;;;;;89.33;35.70;;;10.00;1.00;;;;;;4969511;28;20763;-87
2023/04/16 05:50:35;;;;;;;57.63;24.07;;;10.00;1.00;;;;;;4966609;28;20211;-86
2023/04/16 05:53:05;;;;;;;58.03;25.27;;;10.00;1.00;;;;;;4969854;28;20833;-87
2023/04/16 05:55:31;;;;;;;47.43;23.60;;;10.00;1.00;;;;;;4970722;28;20439;-86
2023/04/16 05:57:56;;;;;;;59.30;29.30;;;10.10;1.00;;;;;;4970461;28;20432;-86
2023/04/16 06:00:22;;;;;;;62.03;30.20;;;10.10;1.00;;;;;;4962897;28;20576;-87
2023/04/16 06:02:48;;;;;;;65.30;29.83;;;10.10;1.00;;;;;;4969676;28;20217;-86
2023/04/16 06:05:13;;;;;;;73.00;33.53;;;10.10;1.00;;;;;;4978778;28;20646;-85
2023/04/16 06:07:39;;;;;;;53.63;28.30;;;10.20;1.00;;;;;;4980362;28;20606;-85
2023/04/16 06:10:05;;;;;;;55.13;28.20;;;10.30;1.00;;;;;;4979609;28;20191;-85
2023/04/16 06:12:30;;;;;;;49.13;29.40;;;10.40;1.00;;;;;;4973674;28;20288;-85
2023/04/16 06:14:56;;;;;;;41.17;23.00;;;10.50;1.00;;;;;;4980489;28;20935;-85
2023/04/16 06:17:21;;;;;;;29.60;17.83;;;10.50;1.00;;;;;;4978863;28;20259;-85
2023/04/16 06:19:47;;;;;;;34.50;17.47;;;10.60;1.00;;;;;;4979552;28;20191;-85
2023/04/16 06:22:15;;;;;;;40.83;23.60;;;10.60;1.00;;;;;;4980397;28;20263;-85
2023/04/16 06:24:41;;;;;;;44.03;25.27;;;10.70;1.00;;;;;;4979744;28;20192;-84
2023/04/16 06:27:06;;;;;;;49.83;29.90;;;10.70;1.00;;;;;;4980334;28;20431;-85
2023/04/16 06:29:32;;;;;;;45.40;25.07;;;10.70;1.00;;;;;;4973497;28;20180;-86
2023/04/16 06:31:57;;;;;;;37.70;19.80;;;10.70;1.00;;;;;;4979686;28;20212;-84
2023/04/16 06:34:23;;;;;;;35.33;18.33;;;10.70;1.00;;;;;;4977810;28;20187;-86
2023/04/16 06:36:49;;;;;;;29.30;18.50;;;10.80;1.00;;;;;;4979839;28;20220;-85
2023/04/16 06:39:14;;;;;;;43.03;20.03;;;10.80;1.00;;;;;;4989617;28;20188;-85
2023/04/16 06:41:40;;;;;;;36.50;19.53;;;10.90;1.00;;;;;;4991935;28;20259;-85
2023/04/16 06:44:05;;;;;;;31.17;18.07;;;10.90;1.00;;;;;;4969872;28;20199;-84
2023/04/16 06:46:31;;;;;;;32.23;19.50;;;10.90;1.00;;;;;;4975066;28;20207;-84
2023/04/16 06:48:56;;;;;;;34.20;18.10;;;10.90;1.00;;;;;;4963259;28;20189;-85
2023/04/16 06:51:22;;;;;;;36.33;18.80;;;10.90;1.00;;;;;;4972718;28;20214;-85
2023/04/16 06:53:48;;;;;;;29.40;18.70;;;10.90;1.00;;;;;;4972680;28;20251;-84
2023/04/16 06:56:13;;;;;;;32.87;18.93;;;10.90;1.00;;;;;;4974379;28;20195;-84
2023/04/16 06:58:39;;;;;;;41.07;19.17;;;10.90;1.00;;;;;;4975521;28;20443;-85
2023/04/16 07:01:04;;;;;;;28.17;17.40;;;11.00;1.00;;;;;;4970787;28;20188;-84
2023/04/16 07:03:30;;;;;;;28.73;16.43;;;11.00;1.00;;;;;;4975574;28;20214;-85
2023/04/16 07:05:56;;;;;;;32.90;18.90;;;11.10;1.00;;;;;;4975235;28;20184;-85
2023/04/16 07:08:29;;;;;;;30.87;17.60;;;11.10;1.00;;;;;;4977452;28;20212;-85
2023/04/16 07:10:55;;;;;;;31.40;17.40;;;11.10;99.90;;;;;;4977743;28;20212;-85
2023/04/16 07:13:20;;;;;;;32.43;17.07;;;11.10;99.90;;;;;;4977158;28;20449;-85
2023/04/16 07:15:46;;;;;;;25.23;17.53;;;11.10;99.90;;;;;;4974332;28;20735;-85
2023/04/16 07:18:12;;;;;;;33.20;18.20;;;11.10;99.90;;;;;;4972526;28;20196;-85
2023/04/16 07:20:37;;;;;;;24.93;15.60;;;11.10;99.90;;;;;;4975076;28;20482;-85
2023/04/16 07:23:03;;;;;;;32.27;17.77;;;11.20;99.90;;;;;;4973295;28;20589;-84
2023/04/16 07:25:29;;;;;;;32.70;16.23;;;11.20;99.90;;;;;;4975422;28;20180;-84
2023/04/16 07:27:54;;;;;;;29.90;16.57;;;11.20;99.90;;;;;;4976024;28;20185;-85
2023/04/16 07:30:23;;;;;;;26.10;16.43;;;11.20;99.90;;;;;;4977433;28;20193;-85
2023/04/16 07:32:50;;;;;;;30.60;18.00;;;11.30;99.90;;;;;;4974509;28;20633;-85
2023/04/16 07:35:15;;;;;;;32.33;16.73;;;11.30;99.90;;;;;;4972087;28;20462;-84
2023/04/16 07:37:41;;;;;;;29.70;17.23;;;11.40;99.90;;;;;;4978413;28;20506;-84
2023/04/16 07:40:07;;;;;;;31.07;18.20;;;11.40;99.90;;;;;;4974924;28;20180;-85
2023/04/16 07:42:33;;;;;;;27.53;16.23;;;11.40;99.90;;;;;;4973528;28;20335;-84
2023/04/16 07:44:59;;;;;;;30.83;17.43;;;11.40;99.90;;;;;;4973234;28;20490;-84
2023/04/16 07:47:25;;;;;;;27.40;17.07;;;11.40;99.90;;;;;;4977744;28;20284;-84
2023/04/16 07:49:52;;;;;;;32.70;18.00;;;11.50;99.90;;;;;;4977300;28;20229;-83
2023/04/16 07:52:18;;;;;;;26.30;15.63;;;11.50;99.90;;;;;;4970563;28;20481;-84
2023/04/16 07:54:43;;;;;;;29.30;17.10;;;11.50;99.90;;;;;;4978505;28;20804;-84
2023/04/16 07:57:11;;;;;;;25.77;17.97;;;11.50;99.90;;;;;;4975932;28;20436;-84
2023/04/16 07:59:36;;;;;;;27.63;16.20;;;11.50;99.90;;;;;;4974794;28;20275;-85
2023/04/16 08:02:02;;;;;;;30.70;17.27;;;11.60;99.90;;;;;;4975125;28;20526;-85
2023/04/16 08:04:28;;;;;;;28.20;16.50;;;11.60;98.10;;;;;;4977159;28;20543;-85
2023/04/16 08:06:54;;;;;;;30.30;18.00;;;11.60;46.00;;;;;;4971415;28;20535;-83
2023/04/16 08:09:21;;;;;;;27.20;15.00;;;11.60;27.40;;;;;;4975989;28;20588;-85
2023/04/16 08:11:48;;;;;;;26.33;17.50;;;11.70;6.10;;;;;;4964542;28;20220;-84
2023/04/16 08:14:15;;;;;;;27.73;17.70;;;11.70;1.00;;;;;;4974700;28;20450;-84
2023/04/16 08:16:41;;;;;;;28.67;17.70;;;11.70;1.00;;;;;;4971757;28;20956;-84
2023/04/16 08:19:06;;;;;;;28.00;17.43;;;11.80;1.00;;;;;;4972995;28;20439;-84
2023/04/16 08:25:23;;;;;;;27.60;17.27;;;11.80;1.00;;;;;;4890222;29;20245;-85
2023/04/16 08:27:49;;;;;;;27.53;17.10;;;11.90;1.00;;;;;;4930187;29;20621;-84
2023/04/16 08:30:15;;;;;;;32.13;16.33;;;11.90;1.00;;;;;;4956094;28;20203;-84
2023/04/16 08:32:42;;;;;;;27.57;16.90;;;12.00;1.00;;;;;;4975267;28;20204;-85
2023/04/16 08:35:08;;;;;;;30.50;16.37;;;12.10;1.00;;;;;;4976254;28;20432;-84
2023/04/16 08:37:34;;;;;;;32.30;17.47;;;12.10;99.90;;;;;;4967262;28;20560;-85
2023/04/16 08:40:01;;;;;;;27.67;17.80;;;12.10;99.90;;;;;;4974874;28;20501;-84
2023/04/16 08:42:54;;;;;;;26.60;14.80;;;12.20;99.90;;;;;;4973382;28;20220;-85
2023/04/16 08:45:20;;;;;;;33.30;16.50;;;12.20;99.90;;;;;;4970453;28;20446;-84
2023/04/16 08:47:48;;;;;;;28.83;17.17;;;12.20;99.90;;;;;;4976368;28;20443;-84
2023/04/16 08:50:15;;;;;;;26.93;18.47;;;12.20;99.90;;;;;;4977041;28;20188;-85
2023/04/16 08:52:51;;;;;;;27.27;15.57;;;12.20;99.90;;;;;;4977880;28;20494;-84
2023/04/16 08:55:22;;;;;;;27.13;17.33;;;12.30;99.90;;;;;;4978047;28;20446;-84
2023/04/16 08:57:53;;;;;;;26.67;17.20;;;12.30;20.10;;;;;;4976495;28;20436;-84
2023/04/16 09:00:20;;;;;;;28.37;18.40;;;12.30;5.80;;;;;;4972745;28;20452;-84
2023/04/16 09:02:49;;;;;;;27.60;16.43;;;12.30;1.00;;;;;;4969510;28;20463;-85
2023/04/16 09:05:19;;;;;;;35.10;17.37;;;12.30;1.00;;;;;;4971821;28;20486;-85
2023/04/16 09:07:46;;;;;;;26.27;15.33;;;12.30;1.00;;;;;;4968551;28;21319;-84
2023/04/16 09:10:14;;;;;;;24.80;16.13;;;12.30;1.00;;;;;;4971321;28;20467;-83
2023/04/16 09:12:42;;;;;;;25.90;17.50;;;12.40;1.00;;;;;;4968615;28;20957;-84
2023/04/16 09:15:12;;;;;;;28.37;17.97;;;12.30;1.00;;;;;;4974266;28;20447;-85
2023/04/16 09:17:38;;;;;;;28.80;18.10;;;12.30;99.90;;;;;;4974370;28;20440;-84
2023/04/16 09:20:09;;;;;;;35.97;18.17;;;12.40;99.90;;;;;;4974370;28;20498;-84
2023/04/16 09:22:35;;;;;;;28.40;18.47;;;12.40;99.90;;;;;;4972560;28;21179;-83
2023/04/16 09:25:01;;;;;;;31.60;18.17;;;12.40;99.90;;;;;;4967158;28;20543;-84
2023/04/16 09:27:30;;;;;;;34.07;20.47;;;12.50;99.90;;;;;;4974158;28;20590;-85
2023/04/16 09:29:56;;;;;;;33.63;19.73;;;12.60;99.90;;;;;;4975717;28;20184;-84
2023/04/16 09:32:31;;;;;;;38.73;19.60;;;12.70;1.00;;;;;;4968498;28;20475;-83
2023/04/16 09:34:58;;;;;;;41.63;21.73;;;12.80;99.90;;;;;;4975942;28;20470;-85
2023/04/16 09:37:33;;;;;;;29.23;17.57;;;12.90;99.90;;;;;;4973865;28;20431;-84
2023/04/16 09:40:01;;;;;;;34.60;20.10;;;12.90;1.00;;;;;;4965337;28;20870;-83
2023/04/16 09:42:35;;;;;;;28.63;18.63;;;13.00;1.00;;;;;;4982949;28;20581;-84
2023/04/16 09:45:01;;;;;;;31.50;20.70;;;13.10;99.90;;;;;;4978614;28;20506;-82
2023/04/16 09:47:39;;;;;;;29.27;19.57;;;13.10;99.90;;;;;;4978371;28;20475;-83
2023/04/16 09:50:06;;;;;;;30.40;18.80;;;13.10;1.00;;;;;;4976583;28;20490;-84
2023/04/16 09:52:36;;;;;;;29.63;18.30;;;13.10;1.00;;;;;;4973614;28;20480;-85
2023/04/16 09:55:02;;;;;;;30.53;20.30;;;13.20;99.90;;;;;;4974367;28;20439;-85
2023/04/16 09:57:28;;;;;;;26.83;18.83;;;13.10;99.90;;;;;;4967844;28;20440;-83
2023/04/16 10:00:00;;;;;;;32.70;19.27;;;13.20;99.90;;;;;;4968233;28;20185;-83
2023/04/16 10:02:27;;;;;;;33.97;20.77;;;13.20;99.90;;;;;;4977365;28;20471;-82
2023/04/16 10:04:53;;;;;;;33.13;21.10;;;13.20;1.00;;;;;;4975795;28;20444;-84
2023/04/16 10:07:19;;;;;;;37.07;21.77;;;13.40;1.00;;;;;;4977995;28;21129;-83
2023/04/16 10:09:47;;;;;;;32.23;20.87;;;13.70;1.00;;;;;;4977986;28;20444;-82
2023/04/16 10:12:13;;;;;;;39.07;23.53;;;14.10;99.90;;;;;;4972870;28;20481;-84
2023/04/16 10:14:39;;;;;;;29.47;19.40;;;14.30;1.00;;;;;;4976388;28;20469;-83
2023/04/16 10:17:08;;;;;;;33.83;20.40;;;14.60;99.90;;;;;;4986687;28;20448;-83
2023/04/16 10:19:34;;;;;;;36.00;21.37;;;14.90;8.60;;;;;;4984122;28;20441;-83
2023/04/16 10:22:03;;;;;;;32.83;20.00;;;15.20;1.00;;;;;;4974608;28;20471;-84
2023/04/16 10:24:30;;;;;;;33.67;20.30;;;15.40;99.90;;;;;;4968696;28;20501;-84
2023/04/16 10:27:03;;;;;;;29.93;19.07;;;15.50;99.90;;;;;;4967723;28;20443;-84
2023/04/16 10:29:30;;;;;;;34.40;21.37;;;15.90;99.90;;;;;;4970210;28;20505;-85
2023/04/16 10:31:57;;;;;;;30.50;19.70;;;16.50;99.90;;;;;;4971611;28;20476;-83
2023/04/16 10:34:38;;;;;;;24.40;18.70;;;17.00;1.00;;;;;;4971211;28;20453;-85
2023/04/16 10:37:23;;;;;;;29.37;21.57;;;17.80;1.00;;;;;;4976167;28;20538;-85
2023/04/16 10:40:31;;;;;;;32.47;20.20;;;19.30;99.90;;;;;;4973571;28;20444;-86
2023/04/16 10:43:00;;;;;;;26.57;19.00;;;20.20;99.90;;;;;;4969814;28;20551;-84
2023/04/16 10:45:31;;;;;;;23.37;17.53;;;21.20;99.90;;;;;;4972239;28;21107;-83
2023/04/16 10:47:57;;;;;;;29.27;19.20;;;22.20;99.90;;;;;;4972862;28;20449;-83
2023/04/16 10:50:23;;;;;;;27.23;19.43;;;22.30;99.90;;;;;;4968464;28;20446;-84
2023/04/16 10:53:16;;;;;;;22.40;17.50;;;22.00;99.90;;;;;;4971863;28;20508;-83
2023/04/16 10:55:56;;;;;;;25.30;19.33;;;21.30;99.90;;;;;;4974695;28;20453;-83
2023/04/16 10:58:30;;;;;;;24.27;18.60;;;20.70;99.90;;;;;;4981619;28;20483;-83
2023/04/16 11:00:59;;;;;;;26.30;19.50;;;20.80;99.90;;;;;;4972712;28;20531;-83
2023/04/16 11:03:25;;;;;;;25.70;17.30;;;21.30;99.90;;;;;;4965395;28;20453;-83
2023/04/16 11:05:51;;;;;;;20.30;16.47;;;22.90;99.90;;;;;;4971894;28;20435;-83
2023/04/16 11:08:16;;;;;;;21.00;16.77;;;23.90;99.90;;;;;;4979572;28;20427;-83
2023/04/16 11:10:42;;;;;;;26.17;18.00;;;24.40;99.90;;;;;;4986241;28;20270;-83
2023/04/16 11:13:11;;;;;;;20.30;17.10;;;24.10;99.90;;;;;;4970907;28;20301;-84
2023/04/16 11:15:37;;;;;;;22.50;16.67;;;23.60;99.90;;;;;;4973592;28;20177;-84
2023/04/16 11:18:02;;;;;;;20.80;15.50;;;22.70;99.90;;;;;;4973995;28;20445;-83
2023/04/16 11:20:28;;;;;;;21.10;17.27;;;21.90;99.90;;;;;;4974060;28;20195;-83
2023/04/16 11:22:56;;;;;;;21.53;15.70;;;21.40;99.90;;;;;;4971819;28;20206;-83
2023/04/16 11:25:23;;;;;;;16.37;14.67;;;21.00;99.90;;;;;;4971992;28;20185;-84
2023/04/16 11:27:50;;;;;;;16.83;14.93;;;21.00;99.90;;;;;;4962127;28;20506;-83
2023/04/16 11:30:16;;;;;;;21.67;15.90;;;20.70;99.90;;;;;;4965141;28;20959;-83
2023/04/16 11:32:43;;;;;;;20.73;15.07;;;20.20;99.90;;;;;;4971871;28;20470;-83
2023/04/16 11:35:17;;;;;;;20.63;14.80;;;19.80;99.90;;;;;;4969749;28;20442;-83
2023/04/16 11:37:43;;;;;;;20.37;14.53;;;19.70;99.90;;;;;;4967208;28;20954;-84
2023/04/16 11:40:09;;;;;;;16.40;13.60;;;20.00;99.90;;;;;;4968082;28;20882;-83
2023/04/16 11:42:37;;;;;;;19.53;13.97;;;20.10;99.90;;;;;;4963958;28;22022;-83
2023/04/16 11:45:03;;;;;;;17.30;13.87;;;20.00;99.90;;;;;;4987100;28;20435;-83
2023/04/16 11:47:30;;;;;;;18.97;13.60;;;19.80;99.90;;;;;;4972575;28;20513;-83
2023/04/16 11:49:56;;;;;;;18.73;15.40;;;19.90;99.90;;;;;;4971418;28;20485;-83
2023/04/16 11:52:26;;;;;;;18.90;14.67;;;19.80;99.90;;;;;;4971998;28;20482;-83
2023/04/16 11:54:51;;;;;;;20.10;16.40;;;19.50;99.90;;;;;;4972440;28;20441;-84
2023/04/16 11:57:27;;;;;;;18.83;14.40;;;19.10;99.90;;;;;;4970946;28;20850;-84
2023/04/16 11:59:54;;;;;;;15.90;13.00;;;18.80;99.90;;;;;;4967121;28;20193;-83
2023/04/16 12:02:44;;;;;;;21.00;14.70;;;18.70;99.90;;;;;;4971567;28;20499;-85
2023/04/16 12:05:37;;;;;;;19.43;16.23;;;18.70;99.90;;;;;;4972431;28;20464;-83
2023/04/16 12:08:11;;;;;;;17.43;14.73;;;18.60;99.90;;;;;;4964632;28;20442;-82
2023/04/16 12:10:58;;;;;;;16.60;14.00;;;18.50;99.90;;;;;;4973067;28;20468;-84
2023/04/16 12:13:26;;;;;;;17.07;14.47;;;18.20;99.90;;;;;;4971155;28;20456;-83
2023/04/16 12:15:54;;;;;;;19.83;15.37;;;18.00;99.90;;;;;;4971260;28;20469;-83
2023/04/16 12:18:22;;;;;;;24.60;17.10;;;17.80;99.90;;;;;;4971140;28;20486;-82
2023/04/16 12:20:50;;;;;;;19.40;15.37;;;17.60;99.90;;;;;;4970335;28;20445;-82
2023/04/16 12:23:30;;;;;;;24.60;16.00;;;17.40;99.90;;;;;;4967288;28;20468;-82
2023/04/16 12:26:01;;;;;;;21.80;16.23;;;17.20;99.90;;;;;;4966614;28;20436;-82
2023/04/16 12:28:35;;;;;;;20.33;15.87;;;17.00;99.90;;;;;;4970547;28;21044;-81
2023/04/16 12:31:01;;;;;;;16.57;14.20;;;16.80;99.90;;;;;;4970154;28;20543;-81
2023/04/16 12:33:27;;;;;;;19.73;15.03;;;16.60;99.90;;;;;;4972784;28;20539;-82
2023/04/16 12:35:53;;;;;;;22.83;16.50;;;16.40;99.90;;;;;;4967564;28;20542;-82
2023/04/16 12:38:19;;;;;;;17.17;14.73;;;16.40;99.90;;;;;;4969855;28;20241;-81
2023/04/16 12:40:45;;;;;;;18.47;15.80;;;16.20;99.90;;;;;;4969292;28;20462;-83